createdAt,value
2022-10-01T00:00:05.655Z,100133.50
2022-10-01T00:00:32.676Z,100141.28
2022-10-01T00:00:55.609Z,100141.94
2022-10-01T00:01:19.941Z,100146.34
2022-10-01T00:01:41.609Z,100141.09
2022-10-01T00:02:04.310Z,100123.00
2022-10-01T00:02:25.979Z,100137.34
2022-10-01T00:02:47.849Z,100140.72
2022-10-01T00:03:09.557Z,100133.63
2022-10-01T00:03:32.573Z,100133.53
2022-10-01T00:03:54.801Z,100140.72
2022-10-01T00:04:16.372Z,100134.88
2022-10-01T00:04:38.131Z,100135.81
2022-10-01T00:05:01.216Z,100129.72
2022-10-01T00:05:22.790Z,100126.63
2022-10-01T00:05:44.755Z,100138.13
2022-10-01T00:06:09.423Z,100129.50
2022-10-01T00:06:31.296Z,100127.63
2022-10-01T00:06:53.854Z,100129.59
2022-10-01T00:07:15.558Z,100124.44
2022-10-01T00:07:38.345Z,100125.09
2022-10-01T00:08:00.151Z,100127.31
2022-10-01T00:08:22.677Z,100127.47
2022-10-01T00:08:46.891Z,100120.09
2022-10-01T00:09:08.456Z,100121.28
2022-10-01T00:09:30.632Z,100121.56
2022-10-01T00:09:53.133Z,100118.50
2022-10-01T00:10:15.797Z,100121.13
2022-10-01T00:10:41.769Z,100115.66
2022-10-01T00:11:07.757Z,100117.78
2022-10-01T00:11:31.310Z,100110.03
2022-10-01T00:11:53.420Z,100112.03
2022-10-01T00:12:15.716Z,100115.03
2022-10-01T00:12:38.615Z,100115.06
2022-10-01T00:13:00.155Z,100111.66
2022-10-01T00:13:22.078Z,100110.34
2022-10-01T00:13:44.815Z,100102.53
2022-10-01T00:14:06.409Z,100112.75
2022-10-01T00:14:29.442Z,100110.66
2022-10-01T00:14:50.991Z,100110.56
2022-10-01T00:15:14.412Z,100121.84
2022-10-01T00:15:39.380Z,100117.28
2022-10-01T00:16:05.633Z,100093.19
2022-10-01T00:16:30.786Z,100110.69
2022-10-01T00:16:53.176Z,100100.66
2022-10-01T00:17:14.824Z,100115.25
2022-10-01T00:17:37.017Z,100105.06
2022-10-01T00:17:59.543Z,100113.91
2022-10-01T00:18:21.112Z,100112.66
2022-10-01T00:18:44.264Z,100111.44
2022-10-01T00:19:05.866Z,100117.44
2022-10-01T00:19:28.605Z,100109.41
2022-10-01T00:19:50.320Z,100110.19
2022-10-01T00:20:14.701Z,100114.59
2022-10-01T00:20:40.099Z,100110.41
2022-10-01T00:21:06.736Z,100121.34
2022-10-01T00:21:31.510Z,100112.09
2022-10-01T00:21:53.322Z,100114.97
2022-10-01T00:22:14.903Z,100113.75
2022-10-01T00:22:37.776Z,100115.47
2022-10-01T00:22:59.343Z,100117.44
2022-10-01T00:23:20.950Z,100120.91
2022-10-01T00:23:42.591Z,100119.75
2022-10-01T00:24:06.955Z,100117.66
2022-10-01T00:24:29.661Z,100113.16
2022-10-01T00:24:51.264Z,100119.38
2022-10-01T00:25:13.149Z,100120.03
2022-10-01T00:25:34.812Z,100119.97
2022-10-01T00:25:56.356Z,100120.91
2022-10-01T00:26:21.077Z,100111.72
2022-10-01T00:26:42.889Z,100109.03
2022-10-01T00:27:04.459Z,100118.72
2022-10-01T00:27:26.622Z,100125.69
2022-10-01T00:27:49.385Z,100122.25
2022-10-01T00:28:12.111Z,100123.88
2022-10-01T00:28:33.787Z,100126.34
2022-10-01T00:28:56.827Z,100116.78
2022-10-01T00:29:19.567Z,100116.91
2022-10-01T00:29:41.215Z,100123.88
2022-10-01T00:30:04.379Z,100128.25
2022-10-01T00:30:25.912Z,100124.91
2022-10-01T00:30:47.971Z,100135.25
2022-10-01T00:31:11.164Z,100126.06
2022-10-01T00:32:15.969Z,100136.22
2022-10-01T00:32:38.939Z,100126.56
2022-10-01T00:33:00.526Z,100123.78
2022-10-01T00:33:22.048Z,100123.13
2022-10-01T00:33:43.624Z,100111.63
2022-10-01T00:34:06.432Z,100123.97
2022-10-01T00:34:28.267Z,100129.03
2022-10-01T00:34:49.828Z,100121.78
2022-10-01T00:35:12.236Z,100121.00
2022-10-01T00:35:34.736Z,100112.22
2022-10-01T00:35:56.881Z,100126.16
2022-10-01T00:36:18.524Z,100099.28
2022-10-01T00:36:40.063Z,100123.41
2022-10-01T00:37:01.840Z,100126.09
2022-10-01T00:37:24.432Z,100126.91
2022-10-01T00:37:47.788Z,100125.97
2022-10-01T00:38:09.563Z,100117.84
2022-10-01T00:38:31.794Z,100114.41
2022-10-01T00:38:59.566Z,100126.66
2022-10-01T00:39:21.582Z,100122.06
2022-10-01T00:39:43.753Z,100117.56
2022-10-01T00:40:07.738Z,100115.66
2022-10-01T00:40:30.855Z,100109.44
2022-10-01T00:40:53.378Z,100118.34
2022-10-01T00:41:18.193Z,100108.50
2022-10-01T00:41:40.317Z,100105.69
2022-10-01T00:42:02.493Z,100119.00
2022-10-01T00:42:26.658Z,100119.19
2022-10-01T00:42:48.533Z,100112.84
2022-10-01T00:43:24.590Z,100116.41
2022-10-01T00:43:51.891Z,100105.41
2022-10-01T00:44:34.609Z,100106.38
2022-10-01T00:44:58.863Z,100103.50
2022-10-01T00:45:20.470Z,100105.25
2022-10-01T00:45:42.383Z,100105.91
2022-10-01T00:46:09.565Z,100111.16
2022-10-01T00:46:40.134Z,100109.22
2022-10-01T00:47:08.396Z,100109.22
2022-10-01T00:47:34.937Z,100106.47
2022-10-01T00:47:59.055Z,100098.53
2022-10-01T00:48:23.359Z,100110.97
2022-10-01T00:48:52.548Z,100097.00
2022-10-01T00:49:19.300Z,100104.16
2022-10-01T00:49:42.857Z,100103.38
2022-10-01T00:50:11.599Z,100096.13
2022-10-01T00:50:38.021Z,100099.75
2022-10-01T00:50:59.895Z,100090.88
2022-10-01T00:51:21.805Z,100092.59
2022-10-01T00:51:46.800Z,100097.00
2022-10-01T00:52:14.684Z,100096.78
2022-10-01T00:52:41.276Z,100090.00
2022-10-01T00:53:06.330Z,100099.59
2022-10-01T00:53:28.343Z,100093.25
2022-10-01T00:53:51.217Z,100095.84
2022-10-01T00:54:16.717Z,100091.56
2022-10-01T00:54:43.581Z,100082.75
2022-10-01T00:55:08.017Z,100087.06
2022-10-01T00:55:34.064Z,100092.41
2022-10-01T00:55:58.091Z,100096.06
2022-10-01T00:56:19.836Z,100087.06
2022-10-01T00:56:42.168Z,100086.94
2022-10-01T00:57:07.820Z,100085.13
2022-10-01T00:57:30.698Z,100088.75
2022-10-01T00:57:52.481Z,100088.88
2022-10-01T00:58:15.346Z,100078.47
2022-10-01T00:58:39.332Z,100083.41
2022-10-01T00:59:01.736Z,100087.06
2022-10-01T00:59:24.140Z,100079.22
2022-10-01T00:59:47.169Z,100079.97
2022-10-01T01:00:13.107Z,100075.50
2022-10-01T01:00:36.561Z,100065.16
2022-10-01T01:00:58.209Z,100068.50
2022-10-01T01:01:20.493Z,100074.94
2022-10-01T01:01:42.222Z,100060.69
2022-10-01T01:02:04.981Z,100070.69
2022-10-01T01:02:26.690Z,100074.25
2022-10-01T01:02:49.850Z,100067.84
2022-10-01T01:03:14.135Z,100072.41
2022-10-01T01:03:36.640Z,100067.19
2022-10-01T01:03:58.815Z,100076.34
2022-10-01T01:04:20.403Z,100068.53
2022-10-01T01:04:42.331Z,100068.72
2022-10-01T01:05:06.061Z,100066.22
2022-10-01T01:05:27.645Z,100057.34
2022-10-01T01:05:50.153Z,100057.06
2022-10-01T01:06:11.729Z,100066.03
2022-10-01T01:06:34.253Z,100063.56
2022-10-01T01:06:59.520Z,100057.47
2022-10-01T01:07:22.181Z,100057.47
2022-10-01T01:07:50.328Z,100062.81
2022-10-01T01:08:12.005Z,100052.00
2022-10-01T01:08:33.984Z,100052.84
2022-10-01T01:08:56.113Z,100053.81
2022-10-01T01:09:17.677Z,100058.22
2022-10-01T01:09:45.257Z,100061.75
2022-10-01T01:10:09.264Z,100050.19
2022-10-01T01:10:39.561Z,100056.59
2022-10-01T01:11:07.618Z,100058.28
2022-10-01T01:11:43.052Z,100059.16
2022-10-01T01:12:15.246Z,100041.59
2022-10-01T01:12:56.744Z,100046.06
2022-10-01T01:13:24.948Z,100048.66
2022-10-01T01:13:55.813Z,100055.63
2022-10-01T01:14:23.243Z,100050.38
2022-10-01T01:14:56.019Z,100054.66
2022-10-01T01:15:24.860Z,100050.19
2022-10-01T01:15:53.894Z,100041.59
2022-10-01T01:16:24.260Z,100041.78
2022-10-01T01:16:52.238Z,100039.19
2022-10-01T01:17:21.423Z,100042.81
2022-10-01T01:17:52.758Z,100046.34
2022-10-01T01:18:23.592Z,100039.41
2022-10-01T01:18:54.377Z,100040.25
2022-10-01T01:19:34.135Z,100039.97
2022-10-01T01:20:13.021Z,100025.13
2022-10-01T01:20:49.868Z,100030.94
2022-10-01T01:21:18.293Z,100018.22
2022-10-01T01:21:45.154Z,100011.19
2022-10-01T01:22:09.260Z,100021.47
2022-10-01T01:22:35.097Z,100020.53
2022-10-01T01:23:09.269Z,100011.75
2022-10-01T01:23:47.350Z,100011.63
2022-10-01T01:24:29.992Z,100013.44
2022-10-01T01:24:57.892Z,100011.44
2022-10-01T01:25:22.001Z,100010.19
2022-10-01T01:25:47.803Z,100005.03
2022-10-01T01:26:22.610Z,100002.53
2022-10-01T01:27:13.621Z,100003.41
2022-10-01T01:27:40.752Z,99997.97
2022-10-01T01:28:17.682Z,100004.09
2022-10-01T01:28:43.887Z,100006.38
2022-10-01T01:29:13.542Z,100007.34
2022-10-01T01:29:42.307Z,100000.16
2022-10-01T01:30:08.247Z,99995.78
2022-10-01T01:30:31.836Z,99997.75
2022-10-01T01:31:03.944Z,100001.56
2022-10-01T01:31:30.596Z,100002.63
2022-10-01T01:31:58.214Z,99992.88
2022-10-01T01:32:25.930Z,99994.31
2022-10-01T01:32:54.210Z,99989.56
2022-10-01T01:33:19.161Z,99994.13
2022-10-01T01:33:45.832Z,99995.94
2022-10-01T01:34:12.273Z,99990.50
2022-10-01T01:34:36.058Z,99986.38
2022-10-01T01:35:02.821Z,99971.63
2022-10-01T01:35:32.160Z,99976.25
2022-10-01T01:35:58.429Z,99992.53
2022-10-01T01:36:26.282Z,99996.53
2022-10-01T01:36:55.681Z,99996.34
2022-10-01T01:37:22.453Z,99982.41
2022-10-01T01:37:52.192Z,99990.22
2022-10-01T01:38:19.754Z,99993.00
2022-10-01T01:38:46.365Z,99987.63
2022-10-01T01:39:11.759Z,99991.84
2022-10-01T01:39:34.424Z,99994.03
2022-10-01T01:39:58.627Z,99982.41
2022-10-01T01:40:22.724Z,99981.53
2022-10-01T01:40:51.325Z,99986.88
2022-10-01T01:41:15.532Z,99990.31
2022-10-01T01:41:40.862Z,99980.47
2022-10-01T01:42:07.209Z,99988.50
2022-10-01T01:42:31.924Z,99967.59
2022-10-01T01:42:55.664Z,99975.13
2022-10-01T01:43:24.089Z,99978.38
2022-10-01T01:43:49.466Z,99983.06
2022-10-01T01:44:12.787Z,99974.63
2022-10-01T01:44:39.821Z,99977.06
2022-10-01T01:45:03.415Z,99978.88
2022-10-01T01:45:30.491Z,99980.41
2022-10-01T01:45:54.955Z,99977.91
2022-10-01T01:46:18.365Z,99977.22
2022-10-01T01:46:43.462Z,99970.63
2022-10-01T01:47:09.641Z,99966.25
2022-10-01T01:47:34.409Z,99965.09
2022-10-01T01:47:59.064Z,99957.84
2022-10-01T01:48:22.346Z,99971.22
2022-10-01T01:48:47.433Z,99966.06
2022-10-01T01:49:10.314Z,99963.28
2022-10-01T01:49:32.712Z,99957.47
2022-10-01T01:49:54.338Z,99962.81
2022-10-01T01:50:17.144Z,99959.09
2022-10-01T01:50:46.469Z,99958.06
2022-10-01T01:51:12.381Z,99949.19
2022-10-01T01:51:42.417Z,99951.38
2022-10-01T01:52:09.209Z,99948.50
2022-10-01T01:52:30.971Z,99948.41
2022-10-01T01:52:53.404Z,99943.06
2022-10-01T01:53:15.536Z,99942.03
2022-10-01T01:53:38.406Z,99950.78
2022-10-01T01:54:00.410Z,99944.72
2022-10-01T01:54:22.287Z,99950.41
2022-10-01T01:54:46.797Z,99942.69
2022-10-01T01:55:09.706Z,99941.03
2022-10-01T01:55:33.181Z,99949.19
2022-10-01T01:55:56.821Z,99942.84
2022-10-01T01:56:18.376Z,99942.56
2022-10-01T01:56:39.961Z,99937.44
2022-10-01T01:57:04.192Z,99946.09
2022-10-01T01:57:26.304Z,99946.03
2022-10-01T01:57:47.875Z,99943.16
2022-10-01T01:58:09.453Z,99941.34
2022-10-01T01:58:35.256Z,99931.63
2022-10-01T01:59:02.755Z,99939.66
2022-10-01T01:59:25.407Z,99933.44
2022-10-01T01:59:47.319Z,99935.34
2022-10-01T02:00:12.263Z,99919.97
2022-10-01T02:00:33.839Z,99925.00
2022-10-01T02:00:55.450Z,99922.19
2022-10-01T02:01:39.273Z,99921.22
2022-10-01T02:02:02.284Z,99922.19
2022-10-01T02:02:28.069Z,99917.47
2022-10-01T02:02:52.342Z,99916.44
2022-10-01T02:03:13.960Z,99914.81
2022-10-01T02:03:35.698Z,99916.63
2022-10-01T02:03:58.552Z,99915.09
2022-10-01T02:04:24.141Z,99903.16
2022-10-01T02:04:50.258Z,99907.09
2022-10-01T02:05:19.260Z,99894.88
2022-10-01T02:05:55.739Z,99908.81
2022-10-01T02:06:26.569Z,99897.91
2022-10-01T02:07:05.496Z,99900.22
2022-10-01T02:08:05.640Z,99900.97
2022-10-01T02:08:37.387Z,99894.66
2022-10-01T02:09:05.875Z,99890.28
2022-10-01T02:09:30.796Z,99896.69
2022-10-01T02:10:05.441Z,99875.09
2022-10-01T02:10:41.185Z,99889.03
2022-10-01T02:11:16.111Z,99881.59
2022-10-01T02:11:45.296Z,99880.16
2022-10-01T02:12:15.943Z,99869.47
2022-10-01T02:12:48.024Z,99876.91
2022-10-01T02:13:25.152Z,99871.34
2022-10-01T02:14:01.175Z,99860.50
2022-10-01T02:14:30.851Z,99857.75
2022-10-01T02:14:57.597Z,99872.63
2022-10-01T02:15:24.996Z,99859.03
2022-10-01T02:15:59.612Z,99866.69
2022-10-01T02:16:27.499Z,99845.81
2022-10-01T02:16:59.622Z,99860.59
2022-10-01T02:17:29.462Z,99855.25
2022-10-01T02:17:57.530Z,99856.41
2022-10-01T02:18:30.082Z,99858.53
2022-10-01T02:18:59.984Z,99852.81
2022-10-01T02:19:38.698Z,99846.69
2022-10-01T02:20:07.161Z,99849.69
2022-10-01T02:20:35.309Z,99845.38
2022-10-01T02:21:03.889Z,99856.59
2022-10-01T02:21:32.157Z,99853.81
2022-10-01T02:22:00.719Z,99858.69
2022-10-01T02:22:28.480Z,99847.88
2022-10-01T02:22:56.954Z,99847.72
2022-10-01T02:23:25.485Z,99846.06
2022-10-01T02:23:54.089Z,99841.06
2022-10-01T02:24:27.793Z,99841.34
2022-10-01T02:24:53.536Z,99839.25
2022-10-01T02:25:18.522Z,99851.09
2022-10-01T02:25:46.529Z,99844.03
2022-10-01T02:26:12.921Z,99850.28
2022-10-01T02:26:38.059Z,99856.19
2022-10-01T02:27:03.226Z,99850.69
2022-10-01T02:27:30.219Z,99838.22
2022-10-01T02:27:56.027Z,99850.47
2022-10-01T02:28:21.036Z,99851.13
2022-10-01T02:28:44.309Z,99844.75
2022-10-01T02:29:13.097Z,99853.16
2022-10-01T02:29:37.858Z,99853.56
2022-10-01T02:30:06.461Z,99850.44
2022-10-01T02:30:30.479Z,99845.50
2022-10-01T02:30:54.745Z,99850.09
2022-10-01T02:31:20.996Z,99849.31
2022-10-01T02:31:43.421Z,99853.34
2022-10-01T02:32:06.361Z,99855.03
2022-10-01T02:32:30.803Z,99843.78
2022-10-01T02:32:55.481Z,99844.28
2022-10-01T02:33:21.799Z,99858.00
2022-10-01T02:33:46.501Z,99849.41
2022-10-01T02:34:12.881Z,99849.91
2022-10-01T02:34:34.681Z,99848.44
2022-10-01T02:34:57.319Z,99851.78
2022-10-01T02:35:20.142Z,99850.19
2022-10-01T02:35:44.984Z,99831.97
2022-10-01T02:36:09.233Z,99839.91
2022-10-01T02:36:32.978Z,99838.69
2022-10-01T02:36:56.915Z,99834.41
2022-10-01T02:37:22.647Z,99839.81
2022-10-01T02:37:49.033Z,99841.28
2022-10-01T02:38:12.722Z,99840.91
2022-10-01T02:38:38.392Z,99851.31
2022-10-01T02:39:03.689Z,99844.06
2022-10-01T02:39:29.285Z,99830.25
2022-10-01T02:39:53.085Z,99849.97
2022-10-01T02:40:18.678Z,99838.72
2022-10-01T02:40:44.863Z,99848.09
2022-10-01T02:41:09.571Z,99848.28
2022-10-01T02:41:34.617Z,99850.75
2022-10-01T02:41:59.241Z,99844.16
2022-10-01T02:42:25.519Z,99854.28
2022-10-01T02:42:52.044Z,99840.75
2022-10-01T02:43:18.292Z,99851.72
2022-10-01T02:43:48.093Z,99848.59
2022-10-01T02:44:15.033Z,99840.66
2022-10-01T02:44:40.180Z,99851.66
2022-10-01T02:45:08.167Z,99856.78
2022-10-01T02:45:35.037Z,99855.19
2022-10-01T02:46:02.633Z,99855.19
2022-10-01T02:46:29.024Z,99859.19
2022-10-01T02:46:58.050Z,99848.50
2022-10-01T02:47:24.993Z,99862.31
2022-10-01T02:47:51.699Z,99863.28
2022-10-01T02:48:17.402Z,99861.94
2022-10-01T02:48:39.936Z,99848.84
2022-10-01T02:49:02.805Z,99850.28
2022-10-01T02:49:29.806Z,99870.91
2022-10-01T02:49:52.943Z,99868.31
2022-10-01T02:50:15.914Z,99859.34
2022-10-01T02:50:43.843Z,99864.13
2022-10-01T02:51:18.683Z,99873.19
2022-10-01T02:51:50.947Z,99864.41
2022-10-01T02:52:20.885Z,99862.50
2022-10-01T02:52:46.090Z,99873.94
2022-10-01T02:53:14.101Z,99864.31
2022-10-01T02:53:44.068Z,99871.94
2022-10-01T02:54:13.256Z,99864.22
2022-10-01T02:54:38.513Z,99826.31
2022-10-01T02:55:04.131Z,99868.31
2022-10-01T02:55:30.933Z,99876.53
2022-10-01T02:55:53.882Z,99878.13
2022-10-01T02:56:37.027Z,99880.06
2022-10-01T02:57:17.599Z,99876.16
2022-10-01T02:57:39.595Z,99871.84
2022-10-01T02:58:02.498Z,99877.19
2022-10-01T02:58:24.105Z,99881.31
2022-10-01T02:58:47.288Z,99885.78
2022-10-01T02:59:08.942Z,99882.09
2022-10-01T02:59:31.923Z,99879.41
2022-10-01T02:59:55.243Z,99880.16
2022-10-01T03:00:21.188Z,99883.59
2022-10-01T03:00:42.900Z,99882.66
2022-10-01T03:01:04.480Z,99893.34
2022-10-01T03:01:26.341Z,99891.03
2022-10-01T03:01:48.294Z,99883.97
2022-10-01T03:02:10.199Z,99879.22
2022-10-01T03:02:33.323Z,99882.66
2022-10-01T03:02:55.050Z,99872.63
2022-10-01T03:03:16.701Z,99879.88
2022-10-01T03:03:41.001Z,99869.97
2022-10-01T03:04:02.616Z,99880.72
2022-10-01T03:04:25.165Z,99871.84
2022-10-01T03:04:47.926Z,99871.78
2022-10-01T03:05:09.471Z,99867.19
2022-10-01T03:05:31.033Z,99869.00
2022-10-01T03:05:53.636Z,99856.41
2022-10-01T03:06:15.181Z,99848.75
2022-10-01T03:06:36.798Z,99869.09
2022-10-01T03:07:03.415Z,99858.50
2022-10-01T03:07:25.772Z,99858.50
2022-10-01T03:07:48.897Z,99852.56
2022-10-01T03:08:10.494Z,99857.91
2022-10-01T03:08:32.004Z,99853.81
2022-10-01T03:08:53.664Z,99853.81
2022-10-01T03:09:16.199Z,99865.06
2022-10-01T03:09:38.009Z,99857.19
2022-10-01T03:09:59.597Z,99853.44
2022-10-01T03:10:22.183Z,99862.41
2022-10-01T03:10:46.737Z,99853.53
2022-10-01T03:11:09.223Z,99846.56
2022-10-01T03:11:30.993Z,99856.59
2022-10-01T03:11:53.736Z,99853.25
2022-10-01T03:12:16.776Z,99845.22
2022-10-01T03:12:42.369Z,99842.72
2022-10-01T03:13:05.967Z,99852.28
2022-10-01T03:13:29.066Z,99830.25
2022-10-01T03:13:50.604Z,99845.63
2022-10-01T03:14:12.140Z,99837.78
2022-10-01T03:14:35.029Z,99841.81
2022-10-01T03:14:57.657Z,99837.78
2022-10-01T03:15:20.202Z,99832.97
2022-10-01T03:15:41.861Z,99832.22
2022-10-01T03:16:03.584Z,99824.66
2022-10-01T03:16:25.281Z,99825.25
2022-10-01T03:16:46.870Z,99829.06
2022-10-01T03:17:09.363Z,99829.63
2022-10-01T03:17:30.904Z,99828.50
2022-10-01T03:17:52.880Z,99829.97
2022-10-01T03:18:14.455Z,99828.25
2022-10-01T03:18:36.062Z,99836.25
2022-10-01T03:18:58.561Z,99827.91
2022-10-01T03:19:20.383Z,99833.06
2022-10-01T03:19:42.429Z,99840.72
2022-10-01T03:20:05.195Z,99830.91
2022-10-01T03:20:27.792Z,99835.88
2022-10-01T03:20:49.390Z,99839.13
2022-10-01T03:21:10.963Z,99850.75
2022-10-01T03:21:32.704Z,99837.41
2022-10-01T03:21:56.332Z,99845.22
2022-10-01T03:22:22.483Z,99855.31
2022-10-01T03:22:46.032Z,99843.13
2022-10-01T03:23:07.559Z,99856.19
2022-10-01T03:23:29.120Z,99853.34
2022-10-01T03:23:51.669Z,99857.84
2022-10-01T03:24:13.379Z,99842.94
2022-10-01T03:24:35.329Z,99860.13
2022-10-01T03:24:57.831Z,99850.09
2022-10-01T03:25:19.525Z,99828.63
2022-10-01T03:25:41.046Z,99860.78
2022-10-01T03:26:02.595Z,99857.34
2022-10-01T03:26:25.327Z,99854.97
2022-10-01T03:26:46.888Z,99854.09
2022-10-01T03:27:08.457Z,99850.41
2022-10-01T03:27:30.022Z,99858.41
2022-10-01T03:27:52.717Z,99851.13
2022-10-01T03:28:14.381Z,99853.81
2022-10-01T03:28:35.953Z,99855.16
2022-10-01T03:28:57.538Z,99849.72
2022-10-01T03:29:19.120Z,99851.91
2022-10-01T03:29:42.977Z,99841.16
2022-10-01T03:30:05.914Z,99836.66
2022-10-01T03:30:27.465Z,99839.34
2022-10-01T03:30:49.055Z,99836.66
2022-10-01T03:31:12.732Z,99835.88
2022-10-01T03:31:34.854Z,99833.41
2022-10-01T03:31:56.600Z,99821.38
2022-10-01T03:32:18.968Z,99819.84
2022-10-01T03:32:41.508Z,99827.59
2022-10-01T03:33:03.076Z,99816.81
2022-10-01T03:33:24.682Z,99822.16
2022-10-01T03:33:46.311Z,99821.09
2022-10-01T03:34:07.992Z,99816.81
2022-10-01T03:34:30.509Z,99810.63
2022-10-01T03:34:52.051Z,99816.03
2022-10-01T03:35:13.631Z,99821.00
2022-10-01T03:35:35.182Z,99820.22
2022-10-01T03:35:56.705Z,99821.09
2022-10-01T03:36:19.214Z,99822.91
2022-10-01T03:36:40.823Z,99818.34
2022-10-01T03:37:02.447Z,99791.97
2022-10-01T03:37:24.973Z,99828.44
2022-10-01T03:37:47.595Z,99811.94
2022-10-01T03:38:09.214Z,99815.56
2022-10-01T03:38:31.419Z,99816.00
2022-10-01T03:38:53.961Z,99823.44
2022-10-01T03:39:15.980Z,99813.63
2022-10-01T03:39:37.558Z,99823.84
2022-10-01T03:39:59.116Z,99816.78
2022-10-01T03:40:21.661Z,99824.63
2022-10-01T03:40:45.764Z,99820.22
2022-10-01T03:41:07.374Z,99815.09
2022-10-01T03:41:28.939Z,99820.56
2022-10-01T03:41:50.536Z,99816.09
2022-10-01T03:42:13.352Z,99819.44
2022-10-01T03:42:35.178Z,99818.31
2022-10-01T03:42:56.740Z,99813.69
2022-10-01T03:43:18.300Z,99821.63
2022-10-01T03:43:40.882Z,99820.69
2022-10-01T03:44:02.657Z,99816.22
2022-10-01T03:44:24.335Z,99814.28
2022-10-01T03:44:47.840Z,99814.38
2022-10-01T03:45:09.923Z,99810.75
2022-10-01T03:45:32.511Z,99818.47
2022-10-01T03:45:54.311Z,99810.94
2022-10-01T03:46:15.993Z,99806.53
2022-10-01T03:46:40.033Z,99800.03
2022-10-01T03:47:02.560Z,99794.44
2022-10-01T03:47:24.328Z,99798.44
2022-10-01T03:47:54.273Z,99792.06
2022-10-01T03:48:18.179Z,99793.00
2022-10-01T03:48:39.785Z,99797.03
2022-10-01T03:49:02.648Z,99800.25
2022-10-01T03:49:24.333Z,99803.53
2022-10-01T03:49:45.918Z,99799.94
2022-10-01T03:50:08.318Z,99802.31
2022-10-01T03:50:30.844Z,99789.81
2022-10-01T03:50:53.828Z,99790.66
2022-10-01T03:51:19.663Z,99794.31
2022-10-01T03:51:41.665Z,99787.91
2022-10-01T03:52:05.297Z,99792.50
2022-10-01T03:52:26.969Z,99796.78
2022-10-01T03:52:50.537Z,99795.72
2022-10-01T03:53:12.407Z,99790.47
2022-10-01T03:53:33.980Z,99803.84
2022-10-01T03:53:56.914Z,99804.00
2022-10-01T03:54:18.530Z,99800.50
2022-10-01T03:54:40.053Z,99806.00
2022-10-01T03:55:02.627Z,99799.53
2022-10-01T03:55:25.293Z,99795.41
2022-10-01T03:55:47.174Z,99799.94
2022-10-01T03:56:08.781Z,99802.66
2022-10-01T03:56:30.814Z,99807.81
2022-10-01T03:56:53.329Z,99802.59
2022-10-01T03:57:14.924Z,99796.72
2022-10-01T03:57:36.536Z,99803.53
2022-10-01T03:57:58.593Z,99794.59
2022-10-01T03:58:20.397Z,99789.94
2022-10-01T03:58:43.052Z,99803.22
2022-10-01T03:59:04.632Z,99803.03
2022-10-01T03:59:27.147Z,99791.41
2022-10-01T03:59:50.069Z,99797.50
2022-10-01T04:00:14.172Z,99795.53
2022-10-01T04:00:35.680Z,99783.38
2022-10-01T04:00:57.893Z,99781.44
2022-10-01T04:01:19.496Z,99786.19
2022-10-01T04:01:42.144Z,99782.28
2022-10-01T04:02:03.915Z,99771.81
2022-10-01T04:02:27.666Z,99773.50
2022-10-01T04:02:49.370Z,99778.94
2022-10-01T04:03:11.159Z,99770.00
2022-10-01T04:03:33.764Z,99766.00
2022-10-01T04:03:55.811Z,99777.03
2022-10-01T04:04:18.936Z,99761.72
2022-10-01T04:04:40.523Z,99763.03
2022-10-01T04:05:03.054Z,99765.34
2022-10-01T04:05:26.517Z,99767.16
2022-10-01T04:05:48.609Z,99768.38
2022-10-01T04:06:10.604Z,99768.16
2022-10-01T04:06:34.553Z,99757.25
2022-10-01T04:06:56.192Z,99758.66
2022-10-01T04:07:18.036Z,99759.50
2022-10-01T04:07:42.482Z,99760.84
2022-10-01T04:08:04.167Z,99766.16
2022-10-01T04:08:26.984Z,99751.69
2022-10-01T04:08:48.837Z,99745.22
2022-10-01T04:09:10.364Z,99746.66
2022-10-01T04:09:34.157Z,99751.31
2022-10-01T04:09:55.718Z,99742.47
2022-10-01T04:10:17.313Z,99735.88
2022-10-01T04:10:38.977Z,99737.84
2022-10-01T04:11:00.935Z,99742.78
2022-10-01T04:11:22.608Z,99747.44
2022-10-01T04:11:45.236Z,99743.38
2022-10-01T04:12:06.781Z,99750.91
2022-10-01T04:12:28.355Z,99756.06
2022-10-01T04:12:49.908Z,99756.25
2022-10-01T04:13:11.629Z,99754.16
2022-10-01T04:13:34.517Z,99756.53
2022-10-01T04:13:57.831Z,99758.75
2022-10-01T04:14:19.661Z,99755.91
2022-10-01T04:14:42.228Z,99753.16
2022-10-01T04:15:05.988Z,99751.13
2022-10-01T04:15:28.184Z,99752.66
2022-10-01T04:15:49.893Z,99750.00
2022-10-01T04:16:11.633Z,99751.50
2022-10-01T04:16:35.947Z,99753.03
2022-10-01T04:16:57.563Z,99757.06
2022-10-01T04:17:19.098Z,99762.97
2022-10-01T04:17:45.119Z,99756.19
2022-10-01T04:18:08.627Z,99752.84
2022-10-01T04:18:30.889Z,99749.25
2022-10-01T04:18:52.600Z,99752.56
2022-10-01T04:19:14.169Z,99761.16
2022-10-01T04:19:36.655Z,99758.28
2022-10-01T04:20:00.156Z,99761.91
2022-10-01T04:20:22.328Z,99756.31
2022-10-01T04:20:43.973Z,99756.09
2022-10-01T04:21:05.744Z,99759.44
2022-10-01T04:21:28.968Z,99764.91
2022-10-01T04:21:50.548Z,99747.44
2022-10-01T04:22:12.090Z,99751.72
2022-10-01T04:22:38.614Z,99743.69
2022-10-01T04:23:00.532Z,99727.69
2022-10-01T04:23:23.391Z,99741.03
2022-10-01T04:23:45.126Z,99734.53
2022-10-01T04:24:06.767Z,99739.88
2022-10-01T04:24:28.329Z,99740.09
2022-10-01T04:24:49.884Z,99733.78
2022-10-01T04:25:13.332Z,99741.69
2022-10-01T04:25:35.275Z,99737.91
2022-10-01T04:25:59.150Z,99724.53
2022-10-01T04:26:20.767Z,99716.81
2022-10-01T04:26:43.258Z,99725.78
2022-10-01T04:27:04.810Z,99717.78
2022-10-01T04:27:26.373Z,99708.72
2022-10-01T04:27:56.322Z,99710.06
2022-10-01T04:28:18.430Z,99700.31
2022-10-01T04:28:41.026Z,99659.59
2022-10-01T04:29:02.711Z,99676.78
2022-10-01T04:29:24.269Z,99670.38
2022-10-01T04:29:45.821Z,99658.94
2022-10-01T04:30:10.826Z,99661.59
2022-10-01T04:30:36.420Z,99668.97
2022-10-01T04:31:12.970Z,99680.69
2022-10-01T04:31:35.191Z,99674.09
2022-10-01T04:31:58.697Z,99671.63
2022-10-01T04:32:21.460Z,99682.22
2022-10-01T04:32:42.981Z,99666.94
2022-10-01T04:33:05.405Z,99680.97
2022-10-01T04:33:27.110Z,99691.44
2022-10-01T04:33:49.737Z,99692.69
2022-10-01T04:34:11.357Z,99704.03
2022-10-01T04:34:47.800Z,99698.59
2022-10-01T04:35:11.153Z,99687.25
2022-10-01T04:35:34.913Z,99684.28
2022-10-01T04:35:56.515Z,99667.78
2022-10-01T04:36:18.126Z,99670.47
2022-10-01T04:36:40.713Z,99664.84
2022-10-01T04:37:02.264Z,99654.84
2022-10-01T04:37:24.169Z,99659.03
2022-10-01T04:37:46.090Z,99655.28
2022-10-01T04:38:12.336Z,99653.00
2022-10-01T04:38:34.318Z,99650.63
2022-10-01T04:39:01.699Z,99653.59
2022-10-01T04:39:26.924Z,99653.50
2022-10-01T04:39:48.647Z,99650.47
2022-10-01T04:40:10.701Z,99644.34
2022-10-01T04:40:34.465Z,99650.63
2022-10-01T04:40:56.974Z,99645.28
2022-10-01T04:41:18.799Z,99644.56
2022-10-01T04:41:41.026Z,99625.47
2022-10-01T04:42:02.580Z,99642.63
2022-10-01T04:42:25.128Z,99638.72
2022-10-01T04:42:47.142Z,99632.34
2022-10-01T04:43:09.576Z,99611.00
2022-10-01T04:43:31.108Z,99613.66
2022-10-01T04:43:53.640Z,99613.00
2022-10-01T04:44:15.192Z,99596.69
2022-10-01T04:44:36.786Z,99608.91
2022-10-01T04:44:58.350Z,99605.47